Time;durP1;ratioP1;P1;durP2;ratioP2;P2;SDS_P1;SDS_P2;PMS_P1;PMS_P2;Temp;Humidity;BMP_temperature;BMP_pressure;BME280_temperature;BME280_humidity;BME280_pressure;Samples;Min_cycle;Max_cycle;Signal;HPM_P1;HPM_P2
2022/09/17 00:02:29;;;;;;;97.62;24.10;;;;;;;12.51;91.10;99768.46;1689993;84;21244;-55
2022/09/17 00:05:36;;;;;;;96.22;24.40;;;;;;;12.51;91.16;99769.83;1674525;85;21265;-56
2022/09/17 00:08:43;;;;;;;125.70;23.77;;;;;;;12.52;91.22;99776.19;1705677;84;21262;-56
2022/09/17 00:11:50;;;;;;;189.57;23.60;;;;;;;12.52;91.25;99769.32;1706164;84;21321;-55
2022/09/17 00:14:57;;;;;;;154.93;21.23;;;;;;;12.51;91.26;99769.02;1706004;84;21368;-55
2022/09/17 00:18:05;;;;;;;116.73;21.37;;;;;;;12.49;91.25;99769.21;1706003;84;21274;-56
2022/09/17 00:21:11;;;;;;;114.15;20.62;;;;;;;12.48;91.20;99769.42;1705998;84;21250;-57
2022/09/17 00:24:19;;;;;;;85.12;19.40;;;;;;;12.42;91.11;99768.31;1673416;84;21265;-57
2022/09/17 00:27:25;;;;;;;82.67;19.42;;;;;;;12.36;90.97;99767.77;1706108;84;21218;-56
2022/09/17 00:30:30;;;;;;;55.15;18.70;;;;;;;12.29;90.79;99761.37;1706083;84;21242;-56
2022/09/17 00:33:35;;;;;;;29.72;18.12;;;;;;;12.23;90.68;99756.70;1705960;84;21309;-56
2022/09/17 00:36:43;;;;;;;47.53;18.57;;;;;;;12.18;90.58;99755.08;1705995;84;21179;-56
2022/09/17 00:39:49;;;;;;;33.10;18.48;;;;;;;12.15;90.59;99747.77;1706060;84;21218;-56
2022/09/17 00:42:55;;;;;;;43.35;16.90;;;;;;;12.12;90.66;99752.28;1706115;84;21293;-56
2022/09/17 00:46:00;;;;;;;44.50;18.02;;;;;;;12.05;90.57;99755.84;1705893;84;21206;-56
2022/09/17 00:49:11;;;;;;;46.80;17.45;;;;;;;12.01;90.48;99760.56;1706026;84;21262;-55
2022/09/17 00:52:19;;;;;;;48.92;18.05;;;;;;;11.98;90.49;99763.70;1651463;85;21269;-57
2022/09/17 00:55:43;;;;;;;49.05;17.98;;;;;;;11.98;90.61;99771.94;1678844;85;21434;-57
2022/09/17 00:58:49;;;;;;;31.48;17.00;;;;;;;11.98;90.75;99771.42;1678517;84;21285;-57
2022/09/17 01:01:54;;;;;;;51.18;16.85;;;;;;;11.97;90.80;99763.39;1663406;85;21213;-55
2022/09/17 01:05:01;;;;;;;65.87;17.42;;;;;;;11.94;90.75;99764.63;1684816;84;21224;-56
2022/09/17 01:08:20;;;;;;;61.98;17.12;;;;;;;11.94;90.81;99761.88;1708589;84;21244;-56
2022/09/17 01:12:11;;;;;;;27.60;16.15;;;;;;;11.94;90.85;99763.77;1708166;84;21228;-56
2022/09/17 01:15:47;;;;;;;42.40;16.27;;;;;;;11.90;90.86;99763.34;1691626;83;21248;-57
2022/09/17 01:19:35;;;;;;;38.42;15.53;;;;;;;11.83;90.66;99766.54;1708117;84;21546;-56
2022/09/17 01:22:50;;;;;;;24.18;15.48;;;;;;;11.76;90.53;99770.28;1707954;84;21196;-57
2022/09/17 01:26:05;;;;;;;27.55;15.50;;;;;;;11.69;90.44;99773.48;1706848;84;21279;-57
2022/09/17 01:29:43;;;;;;;37.25;16.50;;;;;;;11.63;90.31;99763.30;1708399;84;21268;-56
2022/09/17 01:32:54;;;;;;;46.58;15.85;;;;;;;11.59;90.27;99758.70;1708089;84;21204;-56
2022/09/17 01:36:24;;;;;;;31.30;16.12;;;;;;;11.55;90.25;99767.52;1708383;84;21231;-57
2022/09/17 01:39:56;;;;;;;52.53;16.95;;;;;;;11.52;90.20;99764.67;1706178;84;21208;-57
2022/09/17 01:43:13;;;;;;;29.55;16.52;;;;;;;11.51;90.30;99766.23;1708222;84;21209;-56
2022/09/17 01:46:40;;;;;;;50.12;16.75;;;;;;;11.52;90.49;99770.66;1706644;84;21665;-57
2022/09/17 01:49:45;;;;;;;36.85;15.18;;;;;;;11.51;90.63;99768.98;1707942;84;21304;-57
2022/09/17 01:52:52;;;;;;;19.73;15.40;;;;;;;11.48;90.68;99775.68;1707909;84;21307;-57
2022/09/17 01:55:58;;;;;;;45.03;16.52;;;;;;;11.46;90.70;99783.78;1707017;84;21236;-57
2022/09/17 01:59:24;;;;;;;31.12;16.93;;;;;;;11.43;90.67;99780.89;1706918;84;21272;-57
2022/09/17 02:02:44;;;;;;;58.63;16.10;;;;;;;11.42;90.68;99785.20;1707112;84;21256;-57
2022/09/17 02:06:13;;;;;;;69.17;17.02;;;;;;;11.41;90.65;99791.23;1710122;82;21256;-57
2022/09/17 02:09:27;;;;;;;70.83;18.23;;;;;;;11.39;90.58;99788.34;1699430;84;21224;-55
2022/09/17 02:12:37;;;;;;;52.48;16.65;;;;;;;11.38;90.49;99786.66;1713710;84;21249;-57
2022/09/17 02:15:47;;;;;;;101.55;16.77;;;;;;;11.38;90.51;99784.77;1713721;84;21272;-56
2022/09/17 02:19:05;;;;;;;51.00;15.78;;;;;;;11.41;90.61;99783.52;1697476;83;21220;-57
2022/09/17 02:22:49;;;;;;;33.63;15.60;;;;;;;11.39;90.61;99786.46;1712947;84;21256;-57
2022/09/17 02:26:10;;;;;;;27.77;13.95;;;;;;;11.37;90.54;99780.86;1713719;84;21287;-56
2022/09/17 02:29:23;;;;;;;29.48;14.00;;;;;;;11.34;90.51;99781.22;1713732;84;21381;-56
2022/09/17 02:32:27;;;;;;;30.05;14.98;;;;;;;11.34;90.61;99784.83;1713734;84;21209;-57
2022/09/17 02:35:36;;;;;;;42.95;14.80;;;;;;;11.35;90.70;99788.42;1713762;84;21812;-56
2022/09/17 02:38:43;;;;;;;31.30;14.78;;;;;;;11.34;90.74;99792.19;1713715;84;21324;-56
2022/09/17 02:42:37;;;;;;;57.43;15.45;;;;;;;11.34;90.77;99800.41;1713732;84;21212;-57
2022/09/17 02:46:10;;;;;;;33.55;14.00;;;;;;;11.32;90.74;99790.19;1712555;83;21247;-57
2022/09/17 02:49:42;;;;;;;57.13;14.53;;;;;;;11.29;90.60;99783.18;1698824;84;21196;-57
2022/09/17 02:53:37;;;;;;;50.58;13.55;;;;;;;11.29;90.54;99785.09;1713819;84;21327;-58
2022/09/17 02:56:54;;;;;;;31.17;13.28;;;;;;;11.32;90.68;99792.92;1697080;83;21204;-56
2022/09/17 03:00:17;;;;;;;92.57;15.70;;;;;;;11.32;90.81;99786.07;1708147;83;21252;-56
2022/09/17 03:03:43;;;;;;;51.53;15.32;;;;;;;11.31;90.83;99789.33;1713976;84;21230;-57
2022/09/17 03:06:52;;;;;;;95.12;15.38;;;;;;;11.31;90.89;99791.20;1702842;82;21237;-56
2022/09/17 03:09:59;;;;;;;116.67;15.90;;;;;;;11.31;90.93;99787.09;1672050;85;21348;-56
2022/09/17 03:13:05;;;;;;;105.67;19.90;;;;;;;11.29;90.92;99784.55;1679634;84;21276;-56
2022/09/17 03:16:12;;;;;;;52.90;14.83;;;;;;;11.29;90.90;99788.66;1678250;85;21224;-57
2022/09/17 03:19:18;;;;;;;46.28;13.60;;;;;;;11.27;90.89;99780.33;1680366;84;21233;-57
2022/09/17 03:22:24;;;;;;;54.33;14.55;;;;;;;11.22;90.66;99790.50;1678897;85;21256;-57
2022/09/17 03:25:29;;;;;;;42.60;14.13;;;;;;;11.15;90.27;99790.08;1669620;85;21293;-57
2022/09/17 03:28:35;;;;;;;31.93;13.30;;;;;;;11.10;90.20;99785.73;1678400;85;21367;-56
2022/09/17 03:31:40;;;;;;;28.83;13.18;;;;;;;11.06;90.25;99784.41;1672103;85;21253;-56
2022/09/17 03:34:46;;;;;;;24.27;12.63;;;;;;;11.02;90.35;99784.48;1669158;85;21213;-56
2022/09/17 03:37:52;;;;;;;22.30;13.38;;;;;;;10.99;90.35;99790.34;1684104;84;21252;-56
2022/09/17 03:41:07;;;;;;;34.80;14.00;;;;;;;10.94;90.28;99785.41;1684127;84;21205;-56
2022/09/17 03:44:14;;;;;;;23.57;12.93;;;;;;;10.92;90.24;99783.41;1681316;84;21284;-57
2022/09/17 03:47:19;;;;;;;35.25;12.40;;;;;;;10.90;90.09;99792.84;1710433;83;21255;-57
2022/09/17 03:50:26;;;;;;;26.62;12.82;;;;;;;10.84;89.94;99786.77;1681665;84;21339;-57
2022/09/17 03:53:32;;;;;;;19.52;13.03;;;;;;;10.84;90.03;99788.14;1676627;85;21252;-57
2022/09/17 03:56:37;;;;;;;27.52;12.98;;;;;;;10.90;90.21;99784.12;1632733;87;21240;-57
2022/09/17 03:59:43;;;;;;;18.82;13.35;;;;;;;10.95;90.35;99776.19;1702540;83;21615;-57
2022/09/17 04:02:48;;;;;;;29.07;15.00;;;;;;;10.98;90.26;99777.16;1679729;84;21256;-57
2022/09/17 04:05:54;;;;;;;30.88;15.15;;;;;;;10.99;90.20;99783.50;1711528;83;21236;-57
2022/09/17 04:09:04;;;;;;;20.57;15.75;;;;;;;11.02;90.16;99794.06;1688542;82;21527;-58
2022/09/17 04:12:11;;;;;;;27.77;14.53;;;;;;;11.10;90.25;99803.53;1715989;83;21362;-57
2022/09/17 04:15:18;;;;;;;24.75;16.35;;;;;;;11.18;90.43;99802.05;1716003;83;21260;-58
2022/09/17 04:18:26;;;;;;;21.68;15.93;;;;;;;11.28;90.58;99810.78;1716090;83;21280;-56
2022/09/17 04:21:34;;;;;;;19.40;16.15;;;;;;;11.37;90.57;99804.16;1715387;83;21212;-57
2022/09/17 04:24:39;;;;;;;18.85;16.07;;;;;;;11.42;90.42;99798.39;1693057;83;21223;-57
2022/09/17 04:27:46;;;;;;;21.23;17.02;;;;;;;11.47;90.47;99797.30;1715809;83;21196;-56
2022/09/17 04:30:52;;;;;;;22.50;17.25;;;;;;;11.57;90.67;99799.20;1714704;83;21200;-57
2022/09/17 04:33:51;;;;;;;18.45;15.80;;;;;;;11.61;90.61;99799.62;1715999;83;21283;-57
2022/09/17 04:36:57;;;;;;;19.35;16.05;;;;;;;11.66;90.62;99810.89;1715875;83;21208;-56
2022/09/17 04:40:03;;;;;;;19.65;16.87;;;;;;;11.69;90.59;99816.83;1714965;83;21192;-57
2022/09/17 04:43:09;;;;;;;17.62;15.83;;;;;;;11.74;90.60;99825.84;1715585;83;21223;-56
2022/09/17 04:46:15;;;;;;;17.92;16.00;;;;;;;11.81;90.74;99828.13;1685156;85;21329;-56
2022/09/17 04:49:22;;;;;;;17.20;15.45;;;;;;;11.90;90.87;99829.16;1694724;83;21283;-57
2022/09/17 04:52:29;;;;;;;16.23;14.58;;;;;;;11.98;90.87;99821.31;1680786;85;21418;-58
2022/09/17 04:55:38;;;;;;;16.65;15.00;;;;;;;12.08;90.91;99833.31;1717631;83;21192;-56
2022/09/17 04:58:44;;;;;;;16.25;14.65;;;;;;;12.16;90.95;99835.39;1665995;85;21196;-56
2022/09/17 05:01:51;;;;;;;17.00;15.30;;;;;;;12.26;91.01;99830.93;1666994;85;21232;-57
2022/09/17 05:04:58;;;;;;;14.98;13.62;;;;;;;12.36;91.05;99831.41;1705885;84;21212;-58
2022/09/17 05:08:07;;;;;;;16.90;15.20;;;;;;;12.43;91.04;99829.56;1706468;84;21204;-54
2022/09/17 05:11:13;;;;;;;16.00;14.50;;;;;;;12.50;91.08;99831.30;1702835;84;21267;-53
2022/09/17 05:14:19;;;;;;;14.85;13.35;;;;;;;12.57;90.98;99822.59;1707783;84;21279;-53
2022/09/17 05:17:24;;;;;;;15.05;13.55;;;;;;;12.61;90.83;99825.23;1657728;86;21752;-53
2022/09/17 05:20:29;;;;;;;15.05;13.55;;;;;;;12.69;90.84;99836.06;1694076;84;21216;-53
2022/09/17 05:23:35;;;;;;;15.48;13.88;;;;;;;12.78;90.82;99834.83;1708180;84;21247;-53
2022/09/17 05:26:41;;;;;;;14.23;12.82;;;;;;;12.87;90.74;99841.02;1678226;85;21402;-53
2022/09/17 05:29:48;;;;;;;15.65;14.13;;;;;;;12.95;90.75;99838.95;1677576;85;21374;-53
2022/09/17 05:33:12;;;;;;;14.55;13.13;;;;;;;13.07;90.90;99841.46;1677898;85;21232;-53
2022/09/17 05:36:18;;;;;;;15.58;13.78;;;;;;;13.21;91.03;99843.20;1678075;85;21354;-53
2022/09/17 05:39:25;;;;;;;16.10;14.00;;;;;;;13.33;91.02;99842.91;1707776;84;21216;-53
2022/09/17 05:42:30;;;;;;;15.45;13.95;;;;;;;13.44;91.07;99842.34;1674398;86;21221;-53
2022/09/17 05:45:37;;;;;;;28.23;25.17;;;;;;;13.56;91.05;99851.36;1694190;84;21213;-53
2022/09/17 05:48:47;;;;;;;16.93;15.23;;;;;;;13.67;91.05;99853.50;1708831;84;21200;-55
2022/09/17 05:52:00;;;;;;;16.55;14.90;;;;;;;13.79;91.11;99853.19;1708814;84;21181;-53
2022/09/17 05:55:07;;;;;;;16.90;15.13;;;;;;;13.93;91.18;99852.15;1677404;85;21205;-54
2022/09/17 05:58:23;;;;;;;16.87;15.18;;;;;;;14.07;91.29;99847.83;1708848;84;21211;-54
2022/09/17 06:01:30;;;;;;;17.98;16.35;;;;;;;14.21;91.31;99850.03;1678986;85;21264;-54
2022/09/17 06:04:37;;;;;;;16.73;15.00;;;;;;;14.37;91.40;99845.51;1708979;84;21349;-53
2022/09/17 06:07:44;;;;;;;17.98;15.25;;;;;;;14.50;91.39;99851.02;1678854;85;21224;-54
2022/09/17 06:10:50;;;;;;;19.45;17.42;;;;;;;14.61;91.38;99848.98;1690613;84;21200;-53
2022/09/17 06:14:01;;;;;;;20.70;16.82;;;;;;;14.76;91.39;99849.59;1659086;86;21399;-53
2022/09/17 06:17:09;;;;;;;19.60;17.60;;;;;;;14.90;91.43;99850.70;1708763;83;21196;-53
2022/09/17 06:20:17;;;;;;;21.57;16.62;;;;;;;15.02;91.40;99853.64;1678816;85;21193;-54
2022/09/17 06:23:24;;;;;;;19.82;16.35;;;;;;;15.16;91.44;99857.21;1676323;84;21248;-54
2022/09/17 06:26:30;;;;;;;17.70;15.95;;;;;;;15.25;91.34;99853.14;1678938;85;21200;-52
2022/09/17 06:29:37;;;;;;;18.10;16.20;;;;;;;15.32;91.28;99857.55;1678000;85;21303;-54
2022/09/17 06:32:43;;;;;;;17.55;15.88;;;;;;;15.40;91.27;99847.67;1677949;85;21394;-54
2022/09/17 06:35:48;;;;;;;17.25;15.65;;;;;;;15.48;91.28;99852.94;1708847;83;21200;-55
2022/09/17 06:38:55;;;;;;;17.67;15.98;;;;;;;15.54;91.22;99854.81;1678868;85;21272;-55
2022/09/17 06:42:03;;;;;;;19.52;17.52;;;;;;;15.62;91.28;99862.84;1708445;83;21248;-55
2022/09/17 06:45:09;;;;;;;19.00;16.70;;;;;;;15.68;91.17;99867.47;1678473;85;21201;-54
2022/09/17 06:48:19;;;;;;;20.55;18.35;;;;;;;15.71;90.99;99864.29;1678630;85;21284;-53
2022/09/17 06:51:38;;;;;;;21.95;19.62;;;;;;;15.74;90.86;99862.98;1708329;84;21251;-54
2022/09/17 06:55:06;;;;;;;25.77;20.88;;;;;;;15.79;90.96;99859.86;1662475;86;21750;-55
2022/09/17 06:58:18;;;;;;;22.17;19.82;;;;;;;15.88;91.06;99859.93;1708472;84;21235;-53
2022/09/17 07:01:26;;;;;;;22.27;20.05;;;;;;;15.97;91.13;99859.96;1678619;85;21248;-54
2022/09/17 07:04:32;;;;;;;27.40;20.17;;;;;;;16.07;91.15;99870.52;1708328;84;21256;-53
2022/09/17 07:07:40;;;;;;;20.10;17.90;;;;;;;16.22;91.36;99870.49;1678209;85;21320;-53
2022/09/17 07:10:46;;;;;;;18.77;16.93;;;;;;;16.36;91.37;99871.25;1663155;85;21192;-54
2022/09/17 07:13:52;;;;;;;17.10;15.28;;;;;;;16.44;91.33;99874.58;1683176;85;21370;-54
2022/09/17 07:17:00;;;;;;;16.73;15.10;;;;;;;16.55;91.34;99888.22;1682766;85;21196;-54
2022/09/17 07:20:07;;;;;;;16.07;14.45;;;;;;;16.60;91.23;99881.48;1682821;85;21429;-53
2022/09/17 07:23:13;;;;;;;15.55;12.88;;;;;;;16.68;91.32;99887.25;1663716;85;21752;-54
2022/09/17 07:26:21;;;;;;;15.55;13.55;;;;;;;16.76;91.40;99886.96;1707242;84;21216;-54
2022/09/17 07:29:27;;;;;;;41.65;36.20;;;;;;;16.86;91.44;99890.02;1663943;85;21653;-52
2022/09/17 07:32:34;;;;;;;16.93;15.00;;;;;;;16.95;91.46;99890.88;1678134;85;21220;-53
2022/09/17 07:35:39;;;;;;;15.90;12.07;;;;;;;17.06;91.45;99893.45;1693409;84;21342;-54
2022/09/17 07:38:48;;;;;;;12.82;11.30;;;;;;;17.15;91.44;99883.77;1674008;86;21385;-53
2022/09/17 07:41:58;;;;;;;15.18;11.65;;;;;;;17.19;91.23;99887.74;1708727;83;21216;-54
2022/09/17 07:44:58;;;;;;;12.47;11.18;;;;;;;17.22;91.22;99893.67;1703563;84;21272;-53
2022/09/17 07:47:51;;;;;;;13.40;11.75;;;;;;;17.27;91.15;99883.28;1679463;85;21221;-54
2022/09/17 07:50:58;;;;;;;13.00;9.83;;;;;;;17.31;91.18;99880.38;1703457;84;21189;-55
2022/09/17 07:54:05;;;;;;;11.22;10.03;;;;;;;17.36;91.22;99880.54;1678427;85;21246;-53
2022/09/17 07:57:11;;;;;;;12.05;10.80;;;;;;;17.44;91.27;99887.14;1706034;84;21216;-54
2022/09/17 08:00:21;;;;;;;14.30;10.55;;;;;;;17.55;91.34;99885.83;1687225;84;21244;-54
2022/09/17 08:03:27;;;;;;;12.00;10.38;;;;;;;17.68;91.40;99888.96;1706352;84;21756;-53
2022/09/17 08:06:35;;;;;;;9.60;8.50;;;;;;;17.79;91.31;99882.66;1705849;84;21229;-53
2022/09/17 08:09:43;;;;;;;14.55;9.15;;;;;;;17.85;91.15;99878.95;1691256;84;21801;-52
2022/09/17 08:12:50;;;;;;;10.25;8.85;;;;;;;17.90;91.00;99880.48;1729206;82;21232;-53
2022/09/17 08:15:55;;;;;;;14.63;9.03;;;;;;;17.93;90.91;99869.45;1732679;82;21216;-53
2022/09/17 08:19:04;;;;;;;11.40;8.95;;;;;;;17.94;90.75;99863.67;1732721;82;21225;-52
2022/09/17 08:22:12;;;;;;;12.63;8.63;;;;;;;17.96;90.67;99865.68;1733175;82;21210;-53
2022/09/17 08:25:17;;;;;;;10.75;8.85;;;;;;;18.04;90.72;99869.50;1722816;82;21209;-52
2022/09/17 08:28:26;;;;;;;11.12;9.58;;;;;;;18.15;90.61;99863.14;1729032;82;21284;-53
2022/09/17 08:31:32;;;;;;;9.83;8.55;;;;;;;18.26;90.51;99872.02;1658639;84;21212;-52
2022/09/17 08:34:40;;;;;;;9.40;8.45;;;;;;;18.37;90.50;99876.74;1663376;85;21789;-54
2022/09/17 08:37:47;;;;;;;9.20;8.18;;;;;;;18.47;90.43;99878.40;1684219;84;21213;-53
2022/09/17 08:41:08;;;;;;;9.93;7.58;;;;;;;18.58;90.42;99867.89;1701680;83;21271;-53
2022/09/17 08:44:31;;;;;;;8.15;6.15;;;;;;;18.66;90.31;99859.19;1676605;85;21272;-53
2022/09/17 08:47:45;;;;;;;8.90;6.35;;;;;;;18.76;90.12;99854.42;1710464;84;21204;-54
2022/09/17 08:50:53;;;;;;;8.73;6.58;;;;;;;18.89;90.17;99856.42;1703944;84;21372;-52
2022/09/17 08:54:12;;;;;;;7.00;5.42;;;;;;;19.04;90.13;99851.20;1703766;83;21303;-54
2022/09/17 08:57:46;;;;;;;8.80;7.10;;;;;;;19.18;90.11;99854.05;1687424;84;21352;-53
2022/09/17 09:01:32;;;;;;;8.15;6.15;;;;;;;19.29;89.84;99853.20;1703020;82;21216;-53
2022/09/17 09:05:01;;;;;;;9.50;5.85;;;;;;;19.42;89.83;99842.37;1702536;84;21279;-56
2022/09/17 09:08:12;;;;;;;9.28;5.37;;;;;;;19.58;89.86;99834.66;1700909;84;21307;-56
2022/09/17 09:11:25;;;;;;;8.73;5.55;;;;;;;19.69;89.70;99827.35;1674677;85;21510;-57
2022/09/17 09:14:45;;;;;;;10.15;5.90;;;;;;;19.76;89.58;99828.02;1668815;85;21228;-58
2022/09/17 09:17:53;;;;;;;8.20;5.55;;;;;;;19.82;89.41;99829.27;1679274;84;21229;-56
2022/09/17 09:21:02;;;;;;;6.67;5.15;;;;;;;19.91;89.32;99835.28;1610034;88;21240;-57
2022/09/17 09:24:19;;;;;;;7.40;5.30;;;;;;;19.95;89.12;99824.80;1662963;86;21216;-57
2022/09/17 09:27:39;;;;;;;7.45;5.35;;;;;;;19.99;89.07;99823.22;1663088;85;21197;-57
2022/09/17 09:30:54;;;;;;;9.30;5.15;;;;;;;20.07;89.03;99818.64;1685815;83;21221;-57
2022/09/17 09:34:03;;;;;;;14.83;6.25;;;;;;;20.21;89.18;99815.86;1639149;86;21252;-57
2022/09/17 09:37:30;;;;;;;7.08;5.00;;;;;;;20.33;89.02;99810.20;1644521;86;21769;-56
2022/09/17 09:40:46;;;;;;;6.67;4.28;;;;;;;20.42;88.96;99812.88;1658999;84;21240;-56
2022/09/17 09:43:59;;;;;;;6.75;4.47;;;;;;;20.58;88.97;99818.41;1649076;85;21179;-57
2022/09/17 09:47:30;;;;;;;7.60;4.90;;;;;;;20.79;89.03;99821.80;1638014;87;21213;-57
2022/09/17 09:50:53;;;;;;;7.42;5.78;;;;;;;20.90;88.67;99818.61;1672474;85;21221;-57
2022/09/17 09:54:26;;;;;;;8.98;4.25;;;;;;;21.04;88.52;99812.98;1691245;85;21382;-57
2022/09/17 09:57:40;;;;;;;6.55;4.50;;;;;;;21.11;88.20;99822.55;1690774;85;21256;-57
2022/09/17 10:00:48;;;;;;;5.97;3.77;;;;;;;21.12;87.96;99820.89;1689887;85;21240;-58
2022/09/17 10:03:54;;;;;;;6.22;4.65;;;;;;;21.13;87.83;99820.36;1690865;85;21770;-57
2022/09/17 10:07:13;;;;;;;6.22;5.10;;;;;;;21.09;87.56;99820.02;1690201;85;21208;-56
2022/09/17 10:10:20;;;;;;;10.72;4.97;;;;;;;20.95;87.24;99813.11;1689946;85;21738;-57
2022/09/17 10:13:27;;;;;;;8.53;4.37;;;;;;;20.85;87.25;99808.82;1679053;84;21280;-57
2022/09/17 10:16:35;;;;;;;9.43;7.22;;;;;;;20.74;87.20;99816.69;1660253;85;21263;-58
2022/09/17 10:19:39;;;;;;;9.60;5.50;;;;;;;20.64;87.16;99817.37;1653178;86;21237;-57
2022/09/17 10:22:52;;;;;;;7.83;4.60;;;;;;;20.59;87.33;99816.48;1676446;85;21792;-56
2022/09/17 10:25:59;;;;;;;7.60;4.47;;;;;;;20.56;87.45;99819.23;1661221;86;21225;-56
2022/09/17 10:29:15;;;;;;;7.10;5.10;;;;;;;20.53;87.55;99816.11;1675083;85;21232;-55
2022/09/17 10:32:25;;;;;;;10.93;5.17;;;;;;;20.51;87.68;99821.08;1645392;87;21480;-55
2022/09/17 10:35:32;;;;;;;10.10;5.10;;;;;;;20.47;87.72;99818.52;1674076;85;21228;-55
2022/09/17 10:38:42;;;;;;;6.62;4.72;;;;;;;20.46;87.79;99815.42;1669214;85;21809;-54
2022/09/17 10:42:07;;;;;;;6.65;5.03;;;;;;;20.49;87.78;99817.70;1673584;85;21229;-55
2022/09/17 10:45:19;;;;;;;8.20;5.70;;;;;;;20.48;87.72;99808.53;1669223;85;21333;-55
2022/09/17 10:48:27;;;;;;;16.50;6.80;;;;;;;20.46;87.74;99798.73;1630111;86;21858;-54
2022/09/17 10:51:39;;;;;;;10.70;6.12;;;;;;;20.42;87.74;99800.36;1651913;85;21204;-56
2022/09/17 10:55:04;;;;;;;9.88;5.85;;;;;;;20.37;87.65;99805.84;1663021;85;21264;-56
2022/09/17 10:58:29;;;;;;;10.55;5.67;;;;;;;20.31;87.68;99804.08;1655631;86;21768;-56
2022/09/17 11:01:54;;;;;;;8.60;6.20;;;;;;;20.27;87.75;99798.70;1658883;84;21228;-58
2022/09/17 11:05:28;;;;;;;9.83;6.70;;;;;;;20.24;87.80;99792.27;1664623;84;21280;-57
2022/09/17 11:09:19;;;;;;;14.10;7.50;;;;;;;20.24;87.85;99782.53;1686003;84;21295;-55
2022/09/17 11:12:53;;;;;;;9.37;7.03;;;;;;;20.28;88.00;99783.16;1704366;84;21267;-55
2022/09/17 11:16:33;;;;;;;7.12;6.20;;;;;;;20.38;88.08;99774.14;1712276;81;21390;-55
2022/09/17 11:19:52;;;;;;;9.63;6.80;;;;;;;20.51;88.12;99773.80;1720097;83;21236;-55
2022/09/17 11:23:23;;;;;;;11.00;7.55;;;;;;;20.59;88.13;99778.39;1691102;83;21773;-55
2022/09/17 11:27:19;;;;;;;9.83;7.62;;;;;;;20.56;87.89;99774.73;1735161;82;21260;-55
2022/09/17 11:30:30;;;;;;;10.25;7.37;;;;;;;20.51;87.72;99776.58;1705585;84;21378;-55
2022/09/17 11:34:12;;;;;;;8.85;7.33;;;;;;;20.42;87.58;99766.99;1726392;82;21753;-55
2022/09/17 11:37:35;;;;;;;11.45;6.67;;;;;;;20.33;87.45;99767.11;1684058;82;21198;-55
2022/09/17 11:40:56;;;;;;;7.75;6.95;;;;;;;20.22;87.33;99764.72;1709495;84;21210;-55
2022/09/17 11:44:15;;;;;;;8.45;7.30;;;;;;;20.12;87.35;99766.47;1712530;82;21840;-55
2022/09/17 11:47:30;;;;;;;10.90;7.65;;;;;;;20.04;87.41;99759.94;1710202;84;21358;-55
2022/09/17 11:50:45;;;;;;;11.43;7.40;;;;;;;19.96;87.46;99745.07;1710480;83;21768;-56
2022/09/17 11:54:05;;;;;;;9.68;7.78;;;;;;;19.93;87.55;99735.86;1710126;84;21283;-56
2022/09/17 11:57:26;;;;;;;9.63;7.45;;;;;;;19.91;87.68;99729.16;1707850;82;21236;-57
2022/09/17 12:00:33;;;;;;;9.03;6.72;;;;;;;19.92;87.75;99723.03;1707811;83;21557;-56
2022/09/17 12:03:52;;;;;;;8.83;7.08;;;;;;;19.94;87.73;99719.47;1689983;83;21221;-56
2022/09/17 12:07:21;;;;;;;10.15;7.03;;;;;;;19.94;87.81;99730.58;1696842;83;21343;-57
2022/09/17 12:10:42;;;;;;;9.25;7.40;;;;;;;19.92;87.84;99724.42;1709542;84;21749;-56
2022/09/17 12:14:05;;;;;;;10.18;7.80;;;;;;;19.94;88.01;99723.64;1709173;84;21268;-56
2022/09/17 12:17:13;;;;;;;9.75;8.25;;;;;;;19.94;88.09;99729.19;1678149;84;21824;-55
2022/09/17 12:20:41;;;;;;;9.90;8.70;;;;;;;19.91;88.08;99719.44;1686350;82;21265;-55
2022/09/17 12:24:08;;;;;;;9.85;8.55;;;;;;;19.87;88.03;99709.91;1672296;86;21228;-56
2022/09/17 12:27:47;;;;;;;12.15;8.85;;;;;;;19.84;88.09;99714.58;1691168;82;21390;-56
2022/09/17 12:30:59;;;;;;;10.35;8.85;;;;;;;19.80;88.02;99713.42;1677425;85;21299;-57
2022/09/17 12:34:23;;;;;;;11.43;8.75;;;;;;;19.71;87.98;99706.57;1649401;87;21249;-56
2022/09/17 12:37:56;;;;;;;12.10;9.70;;;;;;;19.69;88.11;99710.17;1710094;82;21193;-54
2022/09/17 12:41:53;;;;;;;17.95;10.98;;;;;;;19.69;88.27;99707.93;1678107;85;21215;-55
2022/09/17 12:45:29;;;;;;;22.02;11.28;;;;;;;19.68;88.29;99707.08;1688971;83;21228;-57
2022/09/17 12:48:54;;;;;;;14.40;10.28;;;;;;;19.64;88.33;99703.13;1719788;83;22205;-57
2022/09/17 12:52:32;;;;;;;14.83;10.30;;;;;;;19.60;88.30;99694.98;1705159;83;21316;-56
2022/09/17 12:56:08;;;;;;;14.50;9.80;;;;;;;19.56;88.29;99690.20;1699968;83;21217;-55
2022/09/17 12:59:20;;;;;;;11.53;10.13;;;;;;;19.53;88.32;99689.31;1676753;84;21571;-56
2022/09/17 13:02:43;;;;;;;13.08;10.48;;;;;;;19.48;88.33;99694.77;1675363;85;21790;-55
2022/09/17 13:06:03;;;;;;;11.50;10.20;;;;;;;19.44;88.38;99679.15;1682831;84;21569;-55
2022/09/17 13:09:40;;;;;;;15.30;10.55;;;;;;;19.43;88.45;99682.17;1711585;84;21256;-55
2022/09/17 13:13:03;;;;;;;12.33;10.60;;;;;;;19.42;88.53;99691.61;1711324;84;21220;-55
2022/09/17 13:16:18;;;;;;;13.38;9.70;;;;;;;19.38;88.52;99682.93;1711091;84;21413;-55
2022/09/17 13:19:38;;;;;;;11.75;9.90;;;;;;;19.34;88.49;99678.41;1695003;82;21241;-56
2022/09/17 13:22:50;;;;;;;13.75;10.95;;;;;;;19.33;88.50;99679.23;1646682;87;21221;-57
2022/09/17 13:26:03;;;;;;;14.18;10.90;;;;;;;19.28;88.51;99668.32;1673882;85;21209;-56
2022/09/17 13:29:08;;;;;;;16.65;12.58;;;;;;;19.25;88.52;99669.33;1673072;85;21313;-57
2022/09/17 13:32:15;;;;;;;12.55;11.35;;;;;;;19.20;88.51;99663.70;1649768;86;21183;-56
2022/09/17 13:35:25;;;;;;;13.75;11.70;;;;;;;19.14;88.45;99666.06;1649000;87;21699;-57
2022/09/17 13:38:31;;;;;;;13.38;10.43;;;;;;;19.08;88.42;99667.06;1632021;88;21268;-57
2022/09/17 13:41:39;;;;;;;15.13;11.18;;;;;;;19.00;88.34;99680.80;1648772;87;21323;-56
2022/09/17 13:44:49;;;;;;;10.98;9.80;;;;;;;18.92;88.30;99680.33;1649924;87;21749;-56
2022/09/17 13:48:17;;;;;;;13.32;10.50;;;;;;;18.81;88.25;99672.89;1632787;88;21251;-56
2022/09/17 13:51:42;;;;;;;16.32;9.73;;;;;;;18.66;88.08;99658.16;1672428;85;21245;-56
2022/09/17 13:54:49;;;;;;;12.58;10.63;;;;;;;18.51;88.07;99652.84;1666851;85;21811;-59
2022/09/17 13:57:57;;;;;;;19.40;10.50;;;;;;;18.42;88.10;99650.17;1669070;86;21239;-57
2022/09/17 14:01:13;;;;;;;15.70;11.22;;;;;;;18.32;88.05;99649.91;1670201;85;21267;-55
2022/09/17 14:04:41;;;;;;;14.70;11.48;;;;;;;18.25;88.13;99654.19;1670209;86;21228;-56
2022/09/17 14:07:54;;;;;;;15.10;11.78;;;;;;;18.19;88.23;99645.47;1669601;86;21263;-54
2022/09/17 14:11:02;;;;;;;13.75;12.07;;;;;;;18.12;88.33;99633.69;1669754;86;21342;-54
2022/09/17 14:14:20;;;;;;;14.78;12.05;;;;;;;18.07;88.37;99622.48;1669029;85;21255;-55
2022/09/17 14:17:58;;;;;;;14.18;11.20;;;;;;;18.03;88.43;99630.97;1653650;85;21211;-55
2022/09/17 14:21:29;;;;;;;14.65;12.40;;;;;;;17.95;88.42;99631.33;1690863;84;21195;-55
2022/09/17 14:24:56;;;;;;;14.45;11.83;;;;;;;17.87;88.45;99629.78;1690955;84;21377;-55
2022/09/17 14:28:09;;;;;;;17.70;12.60;;;;;;;17.78;88.39;99623.45;1661047;86;21247;-55
2022/09/17 14:31:27;;;;;;;15.78;13.00;;;;;;;17.68;88.41;99618.52;1691935;84;21251;-55
2022/09/17 14:34:35;;;;;;;14.50;13.00;;;;;;;17.63;88.44;99635.00;1662360;86;21258;-56
2022/09/17 14:37:42;;;;;;;15.45;12.73;;;;;;;17.56;88.44;99625.13;1691639;85;21550;-55
2022/09/17 14:41:16;;;;;;;18.90;14.35;;;;;;;17.51;88.51;99619.47;1671178;85;21247;-56
2022/09/17 14:44:25;;;;;;;18.77;13.98;;;;;;;17.47;88.62;99612.73;1675724;85;21252;-56
2022/09/17 14:47:34;;;;;;;20.17;13.22;;;;;;;17.41;88.69;99617.25;1705251;84;21205;-56
2022/09/17 14:50:40;;;;;;;21.52;13.32;;;;;;;17.36;88.66;99619.06;1674990;85;21209;-56
2022/09/17 14:53:47;;;;;;;20.10;14.10;;;;;;;17.27;88.69;99617.17;1675480;85;21781;-55
2022/09/17 14:56:58;;;;;;;16.05;12.80;;;;;;;17.20;88.68;99618.37;1705588;84;21244;-56
2022/09/17 15:00:07;;;;;;;16.00;13.05;;;;;;;17.16;88.84;99619.37;1675626;85;21317;-56